Time;durP1;ratioP1;P1;durP2;ratioP2;P2;SDS_P1;SDS_P2;PMS_P1;PMS_P2;Temp;Humidity;BMP_temperature;BMP_pressure;BME280_temperature;BME280_humidity;BME280_pressure;Samples;Min_cycle;Max_cycle;Signal;HPM_P1;HPM_P2
2023/03/22 00:01:18;;;;;;;3.67;2.88;;;9.80;99.90;;;8.73;100.00;97188.59;5030177;28;20446;-77
2023/03/22 00:03:44;;;;;;;6.53;3.33;;;9.80;99.90;;;8.75;100.00;97191.81;5030145;28;20399;-77
2023/03/22 00:06:11;;;;;;;4.57;3.50;;;9.80;99.90;;;8.72;100.00;97186.22;5030215;28;20460;-77
2023/03/22 00:08:39;;;;;;;5.65;3.47;;;9.70;99.90;;;8.71;100.00;97187.28;5029985;28;20965;-77
2023/03/22 00:11:06;;;;;;;4.85;3.30;;;9.70;99.90;;;8.72;100.00;97187.00;5030054;28;20907;-77
2023/03/22 00:13:33;;;;;;;3.70;3.00;;;9.70;99.90;;;8.71;100.00;97177.53;5029875;28;20403;-77
2023/03/22 00:16:01;;;;;;;5.97;3.13;;;9.70;99.90;;;8.72;100.00;97194.16;5029940;28;20477;-77
2023/03/22 00:18:28;;;;;;;6.82;3.22;;;9.70;99.90;;;8.68;100.00;97178.00;5030065;28;20403;-77
2023/03/22 00:20:56;;;;;;;4.70;3.50;;;9.70;99.90;;;8.66;100.00;97182.72;5029924;28;20418;-77
2023/03/22 00:23:24;;;;;;;5.43;3.30;;;9.70;99.90;;;8.66;100.00;97187.97;5029766;28;20487;-77
2023/03/22 00:25:51;;;;;;;6.30;3.33;;;9.60;99.90;;;8.59;100.00;97179.44;5030085;28;20403;-77
2023/03/22 00:28:17;;;;;;;6.22;3.60;;;9.60;99.90;;;8.57;100.00;97181.53;5033468;28;20447;-77
2023/03/22 00:30:52;;;;;;;5.07;3.08;;;9.60;99.90;;;8.53;100.00;97175.16;5033655;28;20415;-77
2023/03/22 00:33:18;;;;;;;4.68;3.58;;;9.60;99.90;;;8.52;100.00;97181.47;5033417;28;20415;-76
2023/03/22 00:35:48;;;;;;;8.23;3.83;;;9.50;99.90;;;8.52;100.00;97182.25;5033471;28;20505;-77
2023/03/22 00:38:14;;;;;;;4.15;3.30;;;9.50;99.90;;;8.51;100.00;97177.22;5033221;28;20441;-77
2023/03/22 00:40:40;;;;;;;6.65;3.80;;;9.50;99.90;;;8.51;100.00;97179.84;5033270;28;20445;-77
2023/03/22 00:43:08;;;;;;;6.40;3.43;;;9.50;99.90;;;8.51;100.00;97185.94;5033142;28;20399;-77
2023/03/22 00:45:36;;;;;;;6.38;3.58;;;9.50;99.90;;;8.53;100.00;97185.69;5033342;28;20406;-77
2023/03/22 00:48:02;;;;;;;5.28;3.50;;;9.50;99.90;;;8.48;100.00;97169.81;5033230;28;20403;-77
2023/03/22 00:50:29;;;;;;;4.50;3.50;;;9.50;99.90;;;8.51;100.00;97171.94;5033287;28;20454;-77
2023/03/22 00:52:54;;;;;;;6.97;3.85;;;9.50;99.90;;;8.53;100.00;97164.59;5032931;28;20399;-77
2023/03/22 00:55:20;;;;;;;6.55;3.90;;;9.50;99.90;;;8.52;100.00;97166.44;5015340;28;20422;-77
2023/03/22 00:57:46;;;;;;;5.67;4.00;;;9.50;99.90;;;8.54;100.00;97153.00;5032967;28;20509;-77
2023/03/22 01:00:15;;;;;;;6.45;3.70;;;9.60;99.90;;;8.58;100.00;97154.09;5033115;28;20403;-77
2023/03/22 01:02:42;;;;;;;4.97;3.43;;;9.60;99.90;;;8.62;100.00;97157.88;5032716;28;20510;-77
2023/03/22 01:05:14;;;;;;;5.57;3.75;;;9.60;99.90;;;8.63;100.00;97148.91;5033047;28;20407;-77
2023/03/22 01:07:41;;;;;;;7.87;4.00;;;9.70;99.90;;;8.63;100.00;97150.75;5015045;28;20870;-77
2023/03/22 01:10:08;;;;;;;5.10;3.42;;;9.60;99.90;;;8.59;100.00;97147.00;5032860;28;20462;-78
2023/03/22 01:12:34;;;;;;;6.22;3.72;;;9.60;99.90;;;8.56;100.00;97142.22;5032602;28;20407;-77
2023/03/22 01:15:00;;;;;;;7.72;4.25;;;9.60;99.90;;;8.51;100.00;97140.28;5032806;28;20399;-77
2023/03/22 01:17:28;;;;;;;5.60;3.80;;;9.50;99.90;;;8.47;100.00;97136.56;5032691;28;20399;-77
2023/03/22 01:19:54;;;;;;;6.03;4.10;;;9.50;99.90;;;8.42;100.00;97136.50;5032758;28;20761;-77
2023/03/22 01:22:19;;;;;;;6.72;4.22;;;9.50;99.90;;;8.37;100.00;97131.94;5014577;28;20429;-77
2023/03/22 01:24:47;;;;;;;6.07;4.32;;;9.40;99.90;;;8.29;100.00;97137.59;5032600;28;20431;-77
2023/03/22 01:27:13;;;;;;;8.18;4.95;;;9.40;99.90;;;8.25;100.00;97127.78;5032568;28;20411;-77
2023/03/22 01:29:38;;;;;;;6.75;4.80;;;9.30;99.90;;;8.19;100.00;97129.56;5014710;28;20517;-77
2023/03/22 01:32:05;;;;;;;9.77;4.95;;;9.30;99.90;;;8.15;100.00;97117.88;5032229;28;20407;-77
2023/03/22 01:34:32;;;;;;;8.23;4.85;;;9.20;99.90;;;8.10;100.00;97120.44;5032436;28;20430;-77
2023/03/22 01:36:58;;;;;;;7.77;4.80;;;9.20;99.90;;;8.07;100.00;97116.44;5032204;28;20403;-77
2023/03/22 01:39:25;;;;;;;11.35;4.80;;;9.10;99.90;;;8.03;100.00;97120.63;5032326;28;20761;-77
2023/03/22 01:41:50;;;;;;;9.20;5.35;;;9.10;99.90;;;8.03;100.00;97114.53;5032020;28;20922;-77
2023/03/22 01:44:20;;;;;;;7.57;4.80;;;9.10;99.90;;;7.98;100.00;97114.44;5032258;28;20407;-77
2023/03/22 01:46:47;;;;;;;6.90;4.80;;;9.00;99.90;;;7.96;100.00;97111.28;5032239;28;20404;-77
2023/03/22 01:49:20;;;;;;;5.95;5.03;;;9.00;99.90;;;7.93;100.00;97112.53;5032046;28;20415;-77
2023/03/22 01:51:50;;;;;;;7.40;4.82;;;9.00;99.90;;;7.88;100.00;97111.69;5031884;28;20438;-77
2023/03/22 01:54:22;;;;;;;8.73;4.53;;;8.90;99.90;;;7.85;100.00;97118.22;5032035;28;20414;-77
2023/03/22 01:56:49;;;;;;;8.10;4.68;;;8.90;99.90;;;7.80;100.00;97114.72;5032074;28;20401;-77
2023/03/22 01:59:15;;;;;;;12.27;4.43;;;8.90;99.90;;;7.78;100.00;97117.56;5031958;28;20738;-77
2023/03/22 02:01:41;;;;;;;6.97;4.73;;;8.80;99.90;;;7.75;100.00;97113.56;5031728;28;20441;-77
2023/03/22 02:04:11;;;;;;;9.30;4.25;;;8.80;99.90;;;7.72;100.00;97108.81;5031847;28;20505;-77
2023/03/22 02:06:38;;;;;;;5.65;4.00;;;8.70;99.90;;;7.67;100.00;97108.69;5031626;28;20398;-77
2023/03/22 02:09:08;;;;;;;8.30;4.25;;;8.70;99.90;;;7.66;100.00;97108.97;5031720;28;20877;-77
2023/03/22 02:11:40;;;;;;;8.45;4.60;;;8.70;99.90;;;7.60;100.00;97107.25;5031339;28;20960;-77
2023/03/22 02:14:39;;;;;;;5.35;3.83;;;8.70;99.90;;;7.60;100.00;97109.88;5031657;28;20399;-77
2023/03/22 02:17:20;;;;;;;5.57;3.83;;;8.60;99.90;;;7.58;100.00;97109.34;5031511;28;20445;-77
2023/03/22 02:20:45;;;;;;;10.27;4.20;;;8.60;99.90;;;7.56;100.00;97100.88;5031427;28;21063;-77
2023/03/22 02:23:54;;;;;;;7.82;4.22;;;8.60;99.90;;;7.54;100.00;97095.03;5031260;28;20418;-77
2023/03/22 02:27:01;;;;;;;10.10;4.88;;;8.60;99.90;;;7.51;100.00;97085.81;5020728;28;20465;-77
2023/03/22 02:29:36;;;;;;;6.32;4.32;;;8.60;99.90;;;7.49;100.00;97084.44;5031149;28;20904;-77
2023/03/22 02:32:53;;;;;;;6.40;4.15;;;8.50;99.90;;;7.43;100.00;97082.75;5031099;28;20399;-77
2023/03/22 02:35:55;;;;;;;5.95;4.05;;;8.50;99.90;;;7.42;100.00;97081.97;5031348;28;20399;-77
2023/03/22 02:39:10;;;;;;;6.82;4.38;;;8.50;99.90;;;7.37;100.00;97085.28;5031092;28;20722;-77
2023/03/22 02:41:53;;;;;;;6.72;4.15;;;8.50;99.90;;;7.35;100.00;97083.94;5030085;28;21559;-77
2023/03/22 02:44:28;;;;;;;6.53;4.25;;;8.40;99.90;;;7.34;100.00;97084.97;5031093;28;20497;-77
2023/03/22 02:47:02;;;;;;;5.55;3.90;;;8.40;99.90;;;7.34;100.00;97082.34;5030999;28;20399;-76
2023/03/22 02:49:35;;;;;;;7.63;3.85;;;8.40;99.90;;;7.32;100.00;97082.59;5030634;28;20753;-76
2023/03/22 02:52:10;;;;;;;7.88;4.10;;;8.30;99.90;;;7.31;100.00;97080.97;5030698;28;20449;-77
2023/03/22 02:54:42;;;;;;;6.72;4.10;;;8.30;99.90;;;7.26;100.00;97080.91;5030971;28;20400;-77
2023/03/22 02:57:15;;;;;;;6.28;4.10;;;8.30;99.90;;;7.24;100.00;97082.16;5030877;28;20498;-77
2023/03/22 02:59:42;;;;;;;5.13;4.10;;;8.30;99.90;;;7.20;100.00;97081.84;5030853;28;20406;-77
2023/03/22 03:02:13;;;;;;;6.32;3.90;;;8.30;99.90;;;7.18;100.00;97073.38;5030530;28;20510;-77
2023/03/22 03:04:45;;;;;;;7.32;3.67;;;8.20;99.90;;;7.12;100.00;97076.97;5030717;28;20425;-76
2023/03/22 03:07:16;;;;;;;4.55;3.67;;;8.10;99.90;;;7.11;100.00;97077.19;5030704;28;20835;-76
2023/03/22 03:09:44;;;;;;;6.47;3.78;;;8.10;99.90;;;7.10;100.00;97080.88;5030752;28;20793;-76
2023/03/22 03:12:17;;;;;;;11.27;4.80;;;8.10;99.90;;;7.10;100.00;97083.50;5030534;28;20451;-77
2023/03/22 03:14:43;;;;;;;5.97;4.43;;;8.10;99.90;;;7.11;100.00;97087.72;5030784;28;20399;-77
2023/03/22 03:17:22;;;;;;;7.27;4.20;;;8.10;99.90;;;7.09;100.00;97084.53;5030538;28;20773;-76
2023/03/22 03:20:00;;;;;;;10.38;4.35;;;8.10;99.90;;;7.08;100.00;97082.91;5030515;28;20398;-77
2023/03/22 03:22:41;;;;;;;6.32;4.55;;;8.20;99.90;;;7.08;100.00;97081.09;5030262;28;20423;-77
2023/03/22 03:25:17;;;;;;;9.20;4.38;;;8.10;99.90;;;7.10;100.00;97084.28;5030446;28;20403;-76
2023/03/22 03:27:51;;;;;;;9.93;4.40;;;8.10;99.90;;;7.09;100.00;97089.78;5030426;28;20526;-77
2023/03/22 03:30:25;;;;;;;5.95;4.30;;;8.10;99.90;;;7.09;100.00;97089.78;5030436;28;20407;-77
2023/03/22 03:32:58;;;;;;;6.85;4.40;;;8.10;99.90;;;7.10;100.00;97083.50;5030151;28;20391;-77
2023/03/22 03:35:29;;;;;;;6.70;4.20;;;8.10;99.90;;;7.09;100.00;97090.59;5030482;28;20505;-77
2023/03/22 03:38:01;;;;;;;8.87;4.83;;;8.10;99.90;;;7.10;100.00;97086.94;5030315;28;20410;-77
2023/03/22 03:40:32;;;;;;;7.28;4.60;;;8.20;99.90;;;7.12;100.00;97089.31;5030347;28;20406;-77
2023/03/22 03:43:03;;;;;;;9.85;4.88;;;8.10;99.90;;;7.09;100.00;97089.78;5030270;28;20827;-77
2023/03/22 03:45:29;;;;;;;7.10;4.95;;;8.20;99.90;;;7.09;100.00;97087.97;5030368;28;20463;-77
2023/03/22 03:47:59;;;;;;;6.18;4.22;;;8.10;99.90;;;7.06;100.00;97088.44;5030273;28;20395;-77
2023/03/22 03:50:26;;;;;;;6.30;4.60;;;8.10;99.90;;;7.05;100.00;97088.69;5030514;28;20396;-77
2023/03/22 03:52:53;;;;;;;7.97;4.85;;;8.10;99.90;;;7.04;100.00;97089.72;5030031;28;20391;-77
2023/03/22 03:55:20;;;;;;;7.13;4.70;;;8.10;99.90;;;7.02;100.00;97089.13;5030348;28;20512;-77
2023/03/22 03:57:47;;;;;;;6.85;4.25;;;8.10;99.90;;;6.99;100.00;97087.78;5030192;28;20406;-77
2023/03/22 04:00:15;;;;;;;8.75;4.75;;;8.00;99.90;;;6.96;100.00;97093.50;5030337;28;20399;-77
2023/03/22 04:02:42;;;;;;;7.13;4.45;;;8.00;99.90;;;6.93;100.00;97091.34;5032720;28;20826;-77
2023/03/22 04:05:09;;;;;;;6.97;4.80;;;8.00;99.90;;;6.91;100.00;97094.22;5034164;28;20489;-77
2023/03/22 04:07:36;;;;;;;9.02;5.10;;;8.00;99.90;;;6.90;100.00;97100.53;5054917;22;20543;-75
2023/03/22 04:10:04;;;;;;;9.10;4.97;;;7.90;99.90;;;6.86;100.00;97090.69;5053781;28;20397;-74
2023/03/22 04:12:31;;;;;;;10.13;4.65;;;7.90;99.90;;;6.85;100.00;97097.78;5053522;28;20393;-75
2023/03/22 04:14:58;;;;;;;10.70;4.57;;;7.90;99.90;;;6.83;100.00;97105.13;5053785;28;20402;-75
2023/03/22 04:17:27;;;;;;;8.27;4.97;;;7.90;99.90;;;6.82;100.00;97094.81;5053606;28;20401;-74
2023/03/22 04:19:55;;;;;;;7.25;4.63;;;7.90;99.90;;;6.79;100.00;97097.91;5053752;28;20543;-75
2023/03/22 04:22:21;;;;;;;7.55;5.05;;;7.80;99.90;;;6.77;100.00;97090.25;5053233;28;20417;-74
2023/03/22 04:24:48;;;;;;;8.15;4.70;;;7.80;99.90;;;6.78;100.00;97098.94;5053537;28;20402;-75
2023/03/22 04:27:15;;;;;;;5.88;4.60;;;7.80;99.90;;;6.74;100.00;97088.09;5053462;28;20405;-74
2023/03/22 04:29:47;;;;;;;7.68;4.82;;;7.80;99.90;;;6.73;100.00;97086.50;5053524;28;20495;-74
2023/03/22 04:32:15;;;;;;;10.47;5.10;;;7.80;99.90;;;6.69;100.00;97080.09;5053272;28;20397;-74
2023/03/22 04:34:41;;;;;;;7.97;4.90;;;7.70;99.90;;;6.65;100.00;97078.19;5053390;28;20451;-74
2023/03/22 04:37:07;;;;;;;9.23;5.47;;;7.70;99.90;;;6.63;100.00;97077.59;5053199;28;20409;-75
2023/03/22 04:39:33;;;;;;;7.85;4.90;;;7.70;99.90;;;6.56;100.00;97072.47;5053324;28;20867;-74
2023/03/22 04:41:59;;;;;;;12.40;5.45;;;7.60;99.90;;;6.56;100.00;97078.53;5052953;28;20413;-75
2023/03/22 04:44:25;;;;;;;10.77;5.28;;;7.60;99.90;;;6.52;100.00;97072.16;5053316;28;20454;-75
2023/03/22 04:46:51;;;;;;;9.10;4.78;;;7.60;99.90;;;6.48;100.00;97067.56;5052013;28;20405;-76
2023/03/22 04:49:18;;;;;;;10.30;5.00;;;7.60;99.90;;;6.45;100.00;97062.81;5051892;28;21065;-76
2023/03/22 04:51:44;;;;;;;7.10;4.30;;;7.50;99.90;;;6.42;100.00;97071.94;5052650;28;20406;-76
2023/03/22 04:54:10;;;;;;;11.73;5.00;;;7.50;99.90;;;6.38;100.00;97062.94;5034875;28;20861;-76
2023/03/22 04:56:36;;;;;;;9.18;4.80;;;7.40;99.90;;;6.36;100.00;97057.09;5051947;28;20488;-76
2023/03/22 04:59:02;;;;;;;7.70;5.00;;;7.40;99.90;;;6.34;100.00;97058.34;5052844;28;20849;-76
2023/03/22 05:01:28;;;;;;;7.22;5.15;;;7.40;99.90;;;6.33;100.00;97049.66;5052527;28;20450;-76
2023/03/22 05:03:54;;;;;;;9.43;5.37;;;7.40;99.90;;;6.29;100.00;97051.19;5035107;28;20437;-75
2023/03/22 05:06:22;;;;;;;9.55;4.65;;;7.30;99.90;;;6.29;100.00;97047.75;5052904;28;20975;-76
2023/03/22 05:08:47;;;;;;;8.05;4.60;;;7.40;99.90;;;6.25;100.00;97050.03;5052679;28;20415;-76
2023/03/22 05:11:16;;;;;;;7.43;4.90;;;7.30;99.90;;;6.22;100.00;97048.69;5051997;28;20409;-74
2023/03/22 05:13:42;;;;;;;9.23;5.22;;;7.30;99.90;;;6.19;100.00;97050.94;5051945;28;20999;-74
2023/03/22 05:16:09;;;;;;;9.17;5.17;;;7.30;99.90;;;6.20;100.00;97055.97;5052663;28;20413;-74
2023/03/22 05:18:41;;;;;;;14.40;5.25;;;7.30;99.90;;;6.17;100.00;97053.81;5052293;28;20488;-74
2023/03/22 05:21:12;;;;;;;8.98;4.90;;;7.30;99.90;;;6.15;100.00;97053.25;5052207;28;20518;-74
2023/03/22 05:23:40;;;;;;;9.77;4.97;;;7.30;99.90;;;6.13;100.00;97049.25;5052450;28;20401;-74
2023/03/22 05:26:07;;;;;;;9.13;5.30;;;7.20;99.90;;;6.11;100.00;97049.47;5052485;28;20903;-75
2023/03/22 05:28:34;;;;;;;11.30;5.05;;;7.20;99.90;;;6.08;100.00;97051.78;5052414;28;20878;-75
2023/03/22 05:31:00;;;;;;;10.30;5.50;;;7.20;99.90;;;6.04;100.00;97048.81;5052339;28;20498;-75
2023/03/22 05:33:28;;;;;;;9.27;5.07;;;7.20;99.90;;;6.06;100.00;97054.63;5052149;28;20440;-74
2023/03/22 05:35:55;;;;;;;8.68;4.63;;;7.10;99.90;;;6.04;100.00;97054.06;5052313;28;20857;-74
2023/03/22 05:38:24;;;;;;;9.70;5.45;;;7.10;99.90;;;6.05;100.00;97049.59;5052205;28;20405;-75
2023/03/22 05:40:51;;;;;;;8.80;4.93;;;7.10;99.90;;;6.03;100.00;97047.19;5051763;28;20480;-74
2023/03/22 05:43:18;;;;;;;9.07;5.37;;;7.10;99.90;;;6.03;100.00;97043.78;5053984;28;20484;-74
2023/03/22 05:45:47;;;;;;;11.05;4.38;;;7.20;99.90;;;6.04;100.00;97048.00;5052984;28;20397;-74
2023/03/22 05:48:14;;;;;;;10.23;4.68;;;7.10;99.90;;;5.98;100.00;97054.97;5051635;28;20394;-74
2023/03/22 05:50:40;;;;;;;8.93;4.90;;;7.10;99.90;;;5.97;100.00;97048.13;5051860;28;20413;-78
2023/03/22 05:53:06;;;;;;;7.65;4.90;;;7.10;99.90;;;5.97;100.00;97058.63;5051965;28;20763;-74
2023/03/22 05:55:32;;;;;;;8.98;5.15;;;7.00;99.90;;;5.98;100.00;97046.31;5051838;28;20405;-74
2023/03/22 05:58:00;;;;;;;8.37;5.20;;;7.10;99.90;;;5.99;100.00;97051.34;5051401;28;20460;-73
2023/03/22 06:00:30;;;;;;;7.55;4.25;;;7.10;99.90;;;6.03;100.00;97060.34;5051588;28;20432;-75
2023/03/22 06:03:02;;;;;;;12.93;5.45;;;7.10;99.90;;;6.04;100.00;97059.31;5051450;28;20449;-76
2023/03/22 06:05:28;;;;;;;8.85;5.10;;;7.10;99.90;;;6.06;100.00;97054.63;5051397;28;20401;-76
2023/03/22 06:07:54;;;;;;;10.15;4.97;;;7.10;99.90;;;6.08;100.00;97063.09;5033508;28;20421;-74
2023/03/22 06:10:20;;;;;;;8.80;4.53;;;7.10;99.90;;;6.12;100.00;97058.16;5051603;28;20429;-75
2023/03/22 06:12:45;;;;;;;6.43;4.33;;;7.20;99.90;;;6.17;100.00;97061.69;5033445;28;20767;-75
2023/03/22 06:15:13;;;;;;;8.32;4.60;;;7.20;99.90;;;6.24;100.00;97066.03;5051507;28;20876;-75
2023/03/22 06:17:39;;;;;;;11.15;4.78;;;7.30;99.90;;;6.30;100.00;97070.38;5050554;28;20401;-75
2023/03/22 06:20:10;;;;;;;13.02;5.28;;;7.30;99.90;;;6.38;100.00;97067.38;5051383;28;20455;-74
2023/03/22 06:22:37;;;;;;;9.18;4.68;;;7.40;99.90;;;6.45;100.00;97073.31;5051051;28;20492;-74
2023/03/22 06:25:04;;;;;;;11.32;5.15;;;7.50;99.90;;;6.52;100.00;97074.78;5050487;28;20455;-73
2023/03/22 06:27:30;;;;;;;7.90;4.65;;;7.50;99.90;;;6.67;100.00;97078.75;5053242;28;20412;-73
2023/03/22 06:29:55;;;;;;;11.73;4.80;;;7.70;99.90;;;6.81;100.00;97082.69;5051887;28;20492;-74
2023/03/22 06:32:23;;;;;;;8.20;4.57;;;7.80;99.90;;;6.90;100.00;97073.41;5051230;28;20489;-75
2023/03/22 06:34:49;;;;;;;9.65;4.57;;;7.90;99.90;;;7.00;100.00;97081.47;5051087;28;20436;-75
2023/03/22 06:37:15;;;;;;;7.70;3.85;;;8.00;99.90;;;7.14;100.00;97071.47;5050156;28;20401;-74
2023/03/22 06:39:41;;;;;;;7.00;4.25;;;8.10;99.90;;;7.34;100.00;97075.25;5046957;28;20963;-74
2023/03/22 06:42:07;;;;;;;6.57;4.75;;;8.30;99.90;;;7.55;100.00;97081.66;5050624;28;20467;-74
2023/03/22 06:44:33;;;;;;;8.90;4.40;;;8.50;99.90;;;7.64;100.00;97085.50;5050985;28;20470;-75
2023/03/22 06:46:59;;;;;;;8.88;4.20;;;8.60;99.90;;;7.70;100.00;97087.16;5050913;28;20409;-74
2023/03/22 06:49:26;;;;;;;8.18;4.35;;;8.70;99.90;;;7.91;100.00;97084.81;5051032;28;20394;-75
2023/03/22 06:51:52;;;;;;;8.00;3.80;;;8.80;99.90;;;7.94;100.00;97085.16;5048342;28;20405;-74
2023/03/22 06:54:19;;;;;;;10.30;4.40;;;8.90;99.90;;;8.19;100.00;97082.09;5052099;28;20446;-74
2023/03/22 06:56:45;;;;;;;6.53;3.70;;;9.10;99.90;;;8.21;100.00;97087.09;5050643;28;20401;-74
2023/03/22 06:59:11;;;;;;;8.15;4.13;;;9.10;99.90;;;8.29;100.00;97082.22;5050587;28;20398;-72
2023/03/22 07:01:37;;;;;;;7.80;4.10;;;9.20;99.90;;;8.36;100.00;97076.78;5050274;28;20479;-73
2023/03/22 07:04:03;;;;;;;5.25;3.80;;;9.30;99.90;;;8.30;100.00;97081.16;5032761;28;20740;-75
2023/03/22 07:06:31;;;;;;;7.28;3.97;;;9.30;99.90;;;8.50;100.00;97084.09;5050654;28;20401;-75
2023/03/22 07:08:57;;;;;;;9.63;3.88;;;9.40;99.90;;;8.53;100.00;97080.97;5050554;28;20408;-74
2023/03/22 07:11:24;;;;;;;6.40;3.80;;;9.50;99.90;;;8.59;100.00;97086.31;5050145;28;20404;-74
2023/03/22 07:13:51;;;;;;;6.50;4.20;;;9.50;99.90;;;8.49;100.00;97079.84;5050501;28;20412;-75
2023/03/22 07:16:18;;;;;;;5.55;3.20;;;9.40;99.90;;;8.61;100.00;97082.38;5049414;28;20473;-74
2023/03/22 07:18:43;;;;;;;4.90;3.40;;;9.50;99.90;;;8.68;100.00;97083.00;5049694;28;20481;-78
2023/03/22 07:21:09;;;;;;;4.70;3.10;;;9.60;99.90;;;8.64;100.00;97079.28;5050611;28;20822;-76
2023/03/22 07:23:37;;;;;;;4.60;3.13;;;9.60;99.90;;;8.89;100.00;97070.81;5050007;28;20417;-76
2023/03/22 07:26:03;;;;;;;6.68;3.08;;;9.70;99.90;;;8.84;100.00;97076.84;5032443;28;20964;-75
2023/03/22 07:28:29;;;;;;;5.68;2.90;;;9.70;99.90;;;8.93;100.00;97067.47;5050439;28;20398;-76
2023/03/22 07:31:00;;;;;;;6.80;3.15;;;9.80;99.90;;;8.89;100.00;97065.56;5024764;28;20432;-76
2023/03/22 07:33:25;;;;;;;4.15;2.90;;;9.80;99.90;;;9.06;100.00;97063.63;5048453;28;20467;-77
2023/03/22 07:35:51;;;;;;;7.13;2.92;;;10.00;99.90;;;9.08;100.00;97072.09;5051770;28;20417;-77
2023/03/22 07:38:18;;;;;;;4.93;2.87;;;10.00;99.90;;;9.09;100.00;97062.34;5055584;28;20412;-77
2023/03/22 07:40:45;;;;;;;5.65;2.78;;;10.10;99.90;;;9.33;100.00;97071.53;5051518;28;20424;-77
2023/03/22 07:43:12;;;;;;;6.63;2.90;;;10.20;99.90;;;9.48;100.00;97074.31;5035149;28;20419;-77
2023/03/22 07:45:39;;;;;;;4.90;3.10;;;10.30;99.90;;;9.66;100.00;97070.50;5054606;28;21034;-77
2023/03/22 07:48:08;;;;;;;5.20;2.55;;;10.50;99.90;;;9.64;100.00;97068.09;5052841;28;20413;-76
2023/03/22 07:50:34;;;;;;;5.38;2.47;;;10.50;99.90;;;9.68;100.00;97066.56;5055458;28;20405;-79
2023/03/22 07:53:00;;;;;;;4.38;2.28;;;10.50;99.90;;;9.66;100.00;97067.84;5036582;28;20413;-77
2023/03/22 07:55:26;;;;;;;6.55;3.17;;;10.60;99.90;;;9.90;100.00;97069.09;5055862;28;20752;-77
2023/03/22 07:57:53;;;;;;;6.23;2.77;;;10.70;99.90;;;9.92;100.00;97066.97;5061422;28;20498;-76
2023/03/22 08:00:20;;;;;;;7.10;2.30;;;10.80;99.90;;;9.90;100.00;97079.69;5067563;28;20405;-77
2023/03/22 08:02:46;;;;;;;4.93;2.50;;;10.80;99.90;;;10.20;100.00;97073.81;5061423;28;20413;-78
2023/03/22 08:05:12;;;;;;;5.20;2.60;;;11.00;99.90;;;10.20;100.00;97070.38;5070930;28;20411;-77
2023/03/22 08:07:38;;;;;;;5.57;2.75;;;11.10;99.90;;;10.19;100.00;97076.72;5058550;28;20705;-78
2023/03/22 08:10:05;;;;;;;4.90;2.33;;;11.10;99.90;;;10.22;100.00;97073.56;5069882;28;20407;-77
2023/03/22 08:12:32;;;;;;;4.50;2.22;;;11.10;99.90;;;10.32;100.00;97068.31;5065886;28;20766;-77
2023/03/22 08:14:59;;;;;;;3.63;2.10;;;11.20;99.90;;;10.39;100.00;97079.47;5062390;28;20495;-78
2023/03/22 08:17:25;;;;;;;5.70;2.25;;;11.20;99.90;;;10.50;100.00;97073.19;5070308;28;20403;-78
2023/03/22 08:19:53;;;;;;;3.30;1.90;;;11.40;99.90;;;10.54;100.00;97076.09;5071535;28;20404;-76
2023/03/22 08:22:24;;;;;;;5.47;2.13;;;11.40;99.90;;;10.64;100.00;97076.16;5062938;28;20496;-78
2023/03/22 08:24:50;;;;;;;3.95;2.08;;;11.50;99.90;;;10.75;100.00;97078.56;5063359;28;20412;-77
2023/03/22 08:27:17;;;;;;;3.80;2.17;;;11.60;99.90;;;10.82;100.00;97073.06;5071111;28;20399;-78
2023/03/22 08:29:43;;;;;;;4.18;1.83;;;11.70;99.90;;;10.93;100.00;97068.56;5058750;28;20412;-77
2023/03/22 08:32:11;;;;;;;2.60;1.50;;;11.70;99.90;;;11.20;100.00;97061.22;5068699;28;20955;-76
2023/03/22 08:34:37;;;;;;;3.35;1.67;;;12.00;99.90;;;11.10;100.00;97059.34;5065539;28;20406;-75
2023/03/22 08:37:03;;;;;;;5.28;1.92;;;11.90;99.90;;;11.12;100.00;97056.44;5061207;28;20392;-75
2023/03/22 08:39:29;;;;;;;3.20;1.85;;;11.90;99.90;;;11.28;100.00;97065.22;5071544;28;20490;-75
2023/03/22 08:41:55;;;;;;;3.10;1.90;;;12.00;99.90;;;11.44;100.00;97067.59;5059529;28;20518;-76
2023/03/22 08:44:21;;;;;;;5.32;1.80;;;12.20;99.90;;;11.43;100.00;97065.22;5067126;28;20401;-77
2023/03/22 08:46:47;;;;;;;3.03;1.80;;;12.30;99.90;;;11.62;100.00;97067.09;5058421;28;20405;-78
2023/03/22 08:49:15;;;;;;;2.33;1.80;;;12.40;99.90;;;11.66;100.00;97064.69;5066918;28;20427;-77
2023/03/22 08:51:41;;;;;;;6.57;2.20;;;12.40;99.90;;;11.67;100.00;97062.84;5055066;28;20933;-77
2023/03/22 08:54:07;;;;;;;3.17;1.90;;;12.50;99.90;;;11.75;100.00;97065.78;5065592;28;20402;-77
2023/03/22 08:56:36;;;;;;;4.72;2.10;;;12.50;99.90;;;11.61;100.00;97064.69;5061720;28;20400;-77
2023/03/22 08:59:02;;;;;;;3.00;1.60;;;12.50;99.90;;;11.65;100.00;97057.81;5057876;28;20405;-77
2023/03/22 09:01:29;;;;;;;2.93;1.70;;;12.50;99.90;;;11.68;100.00;97051.19;5068171;28;20498;-77
2023/03/22 09:03:56;;;;;;;3.40;2.00;;;12.40;99.90;;;11.78;100.00;97059.16;5057136;28;20819;-77
2023/03/22 09:06:24;;;;;;;5.03;1.88;;;12.60;99.90;;;11.78;100.00;97065.25;5063920;28;20409;-76
2023/03/22 09:08:51;;;;;;;2.90;1.45;;;12.60;99.90;;;11.86;100.00;97055.97;5063825;28;20461;-78
2023/03/22 09:11:18;;;;;;;4.40;1.87;;;12.70;99.90;;;11.99;100.00;97055.41;5056071;28;20899;-78
2023/03/22 09:13:44;;;;;;;3.42;1.67;;;12.70;99.90;;;12.41;100.00;97063.81;5068055;28;20800;-78
2023/03/22 09:16:10;;;;;;;3.20;1.70;;;13.00;99.90;;;12.32;100.00;97056.69;5058324;28;20400;-78
2023/03/22 09:18:39;;;;;;;4.00;1.80;;;13.00;99.90;;;12.36;100.00;97049.75;5060967;28;21002;-78
2023/03/22 09:21:07;;;;;;;3.47;1.80;;;13.10;99.90;;;12.27;100.00;97041.56;5052908;28;20409;-78
2023/03/22 09:23:36;;;;;;;12.90;2.58;;;13.00;99.90;;;12.20;100.00;97038.41;5051460;28;20417;-77
2023/03/22 09:26:05;;;;;;;4.70;1.77;;;13.00;99.90;;;12.26;100.00;97042.63;5065221;28;20403;-78
2023/03/22 09:28:32;;;;;;;4.00;1.77;;;13.10;99.90;;;12.54;100.00;97043.09;5061130;28;20416;-78
2023/03/22 09:31:00;;;;;;;3.30;1.50;;;13.20;99.90;;;12.47;100.00;97037.28;5059308;28;20406;-80
2023/03/22 09:33:26;;;;;;;2.35;1.50;;;13.30;99.90;;;12.64;100.00;97041.16;5070277;28;20398;-77
2023/03/22 09:35:53;;;;;;;2.97;1.50;;;13.40;99.90;;;12.71;100.00;97028.38;5051169;28;20401;-79
2023/03/22 09:38:20;;;;;;;2.78;1.30;;;13.50;99.90;;;12.91;100.00;97032.03;5052438;28;20479;-78
2023/03/22 09:40:59;;;;;;;2.53;1.53;;;13.60;99.90;;;13.01;100.00;97042.56;5051510;28;20510;-79
2023/03/22 09:43:28;;;;;;;2.25;1.48;;;13.70;99.90;;;12.90;100.00;97025.13;5051085;28;20413;-78
2023/03/22 09:45:54;;;;;;;5.78;1.70;;;13.60;99.90;;;13.01;100.00;97037.25;5053161;28;20413;-79
2023/03/22 09:48:29;;;;;;;2.65;1.30;;;13.80;99.50;;;13.05;100.00;97019.72;5064785;28;20407;-79
2023/03/22 09:50:55;;;;;;;4.10;1.80;;;13.90;97.30;;;13.29;100.00;97031.28;5071086;28;20392;-79
2023/03/22 09:53:26;;;;;;;2.90;1.50;;;14.00;99.90;;;13.23;100.00;97027.03;5068114;28;20398;-79
2023/03/22 09:56:05;;;;;;;3.13;1.90;;;14.00;97.70;;;13.39;100.00;97025.88;5049511;28;20409;-79
2023/03/22 09:58:39;;;;;;;3.40;1.42;;;14.20;94.50;;;13.65;100.00;97018.50;5051701;28;20394;-78
2023/03/22 10:01:15;;;;;;;4.22;1.60;;;14.30;99.90;;;13.84;100.00;97016.72;5051764;28;20405;-75
2023/03/22 10:04:25;;;;;;;3.33;1.70;;;14.50;99.90;;;13.65;100.00;97018.50;5050929;28;20421;-75
2023/03/22 10:09:49;;;;;;;3.17;1.60;;;14.70;96.80;;;14.32;100.00;97004.25;5046881;28;20436;-71
2023/03/22 10:12:26;;;;;;;4.10;1.70;;;15.00;96.70;;;15.06;100.00;96992.13;5049366;28;20405;-72
2023/03/22 10:15:03;;;;;;;4.65;1.77;;;15.60;99.90;;;15.67;100.00;96993.84;5050866;28;20430;-71
2023/03/22 10:17:30;;;;;;;2.55;1.40;;;16.30;97.10;;;15.61;89.84;96996.91;5039845;28;20893;-72
2023/03/22 10:20:04;;;;;;;4.38;1.42;;;16.60;89.30;;;15.94;90.66;96987.78;5030578;28;20410;-70
2023/03/22 10:22:35;;;;;;;4.40;1.50;;;16.80;88.70;;;16.06;100.00;96981.97;5022801;28;20419;-70
2023/03/22 10:25:03;;;;;;;2.37;1.40;;;16.80;94.00;;;16.32;100.00;96980.38;5031236;28;20399;-71
2023/03/22 10:27:32;;;;;;;1.25;1.10;;;17.00;95.80;;;16.88;100.00;96989.94;5030817;28;20411;-71
2023/03/22 10:30:05;;;;;;;3.10;1.30;;;17.40;96.50;;;17.21;96.16;96982.53;5031120;28;20407;-71
2023/03/22 10:32:37;;;;;;;3.53;1.50;;;17.80;92.20;;;17.82;85.73;96978.38;5023055;28;20446;-70
2023/03/22 10:35:04;;;;;;;1.63;1.20;;;18.60;83.30;;;18.80;88.32;96989.59;5031321;28;20399;-72